createdAt,value
2023-02-18T00:00:38.950Z,4.40
2023-02-18T00:03:05.335Z,4.33
2023-02-18T00:05:31.716Z,4.10
2023-02-18T00:07:58.063Z,4.10
2023-02-18T00:10:24.444Z,4.27
2023-02-18T00:12:50.786Z,4.30
2023-02-18T00:15:17.168Z,4.50
2023-02-18T00:17:43.525Z,4.10
2023-02-18T00:20:09.914Z,4.20
2023-02-18T00:22:36.250Z,4.23
2023-02-18T00:25:02.645Z,4.17
2023-02-18T00:27:28.971Z,4.00
2023-02-18T00:29:55.389Z,3.93
2023-02-18T00:32:21.732Z,4.10
2023-02-18T00:34:48.128Z,4.57
2023-02-18T00:37:14.455Z,4.23
2023-02-18T00:39:40.835Z,4.07
2023-02-18T00:42:07.215Z,4.40
2023-02-18T00:44:33.584Z,4.20
2023-02-18T00:46:59.926Z,4.20
2023-02-18T00:49:26.300Z,4.27
2023-02-18T00:51:52.647Z,4.00
2023-02-18T00:54:19.024Z,4.40
2023-02-18T00:56:45.408Z,4.40
2023-02-18T00:59:11.774Z,3.90
2023-02-18T01:01:38.129Z,4.40
2023-02-18T01:04:04.503Z,3.90
2023-02-18T01:06:30.840Z,4.00
2023-02-18T01:08:57.229Z,3.90
2023-02-18T01:11:23.571Z,4.00
2023-02-18T01:13:49.963Z,4.40
2023-02-18T01:16:16.343Z,4.27
2023-02-18T01:18:42.693Z,4.33
2023-02-18T01:21:09.089Z,4.10
2023-02-18T01:23:35.425Z,3.90
2023-02-18T01:26:01.764Z,4.60
2023-02-18T01:28:28.162Z,4.00
2023-02-18T01:30:54.567Z,4.10
2023-02-18T01:33:20.886Z,4.00
2023-02-18T01:35:47.272Z,4.17
2023-02-18T01:38:13.683Z,4.20
2023-02-18T01:40:41.075Z,3.90
2023-02-18T01:43:07.467Z,4.20
2023-02-18T01:45:33.807Z,4.10
2023-02-18T01:48:00.188Z,3.97
2023-02-18T01:50:26.530Z,4.10
2023-02-18T01:52:52.927Z,3.97
2023-02-18T01:55:19.269Z,4.20
2023-02-18T01:57:45.656Z,4.20
2023-02-18T02:00:12.054Z,4.03
2023-02-18T02:02:40.126Z,3.80
2023-02-18T02:05:04.773Z,4.00
2023-02-18T02:07:31.177Z,3.87
2023-02-18T02:09:57.518Z,4.30
2023-02-18T02:12:23.915Z,4.10
2023-02-18T02:14:50.260Z,4.00
2023-02-18T02:17:16.668Z,3.83
2023-02-18T02:19:43.015Z,3.70
2023-02-18T02:22:09.412Z,3.90
2023-02-18T02:24:35.753Z,3.73
2023-02-18T02:27:02.143Z,3.80
2023-02-18T02:29:28.491Z,3.90
2023-02-18T02:31:54.927Z,3.87
2023-02-18T02:34:21.202Z,3.90
2023-02-18T02:36:47.579Z,3.90
2023-02-18T02:39:13.953Z,4.07
2023-02-18T02:41:40.331Z,3.77
2023-02-18T02:44:06.679Z,4.20
2023-02-18T02:46:33.069Z,4.07
2023-02-18T02:49:00.632Z,4.00
2023-02-18T02:51:25.799Z,3.90
2023-02-18T02:53:52.134Z,4.37
2023-02-18T02:56:18.539Z,4.03
2023-02-18T02:58:44.864Z,3.90
2023-02-18T03:01:11.360Z,3.87
2023-02-18T03:03:37.634Z,4.30
2023-02-18T03:06:04.019Z,3.97
2023-02-18T03:08:30.351Z,4.13
2023-02-18T03:10:56.732Z,4.17
2023-02-18T03:13:23.078Z,3.93
2023-02-18T03:15:49.455Z,3.80
2023-02-18T03:18:15.823Z,3.80
2023-02-18T03:20:42.201Z,4.30
2023-02-18T03:23:08.569Z,4.17
2023-02-18T03:25:34.962Z,4.07
2023-02-18T03:28:01.308Z,4.03
2023-02-18T03:30:27.847Z,3.90
2023-02-18T03:32:54.141Z,4.10
2023-02-18T03:35:20.560Z,3.80
2023-02-18T03:37:46.876Z,4.30
2023-02-18T03:40:15.680Z,4.17
2023-02-18T03:42:42.019Z,3.80
2023-02-18T03:45:08.411Z,4.00
2023-02-18T03:47:34.749Z,3.90
2023-02-18T03:50:01.130Z,3.80
2023-02-18T03:52:27.502Z,3.80
2023-02-18T03:54:53.878Z,3.90
2023-02-18T03:57:20.222Z,3.80
2023-02-18T03:59:46.615Z,4.63
2023-02-18T04:02:12.949Z,4.20
2023-02-18T04:04:39.341Z,3.97
2023-02-18T04:07:05.679Z,4.20
2023-02-18T04:09:32.075Z,3.97
2023-02-18T04:11:58.411Z,3.90
2023-02-18T04:14:24.831Z,3.80
2023-02-18T04:16:51.242Z,3.60
2023-02-18T04:19:17.567Z,4.67
2023-02-18T04:21:43.901Z,4.20
2023-02-18T04:24:10.289Z,3.87
2023-02-18T04:26:36.622Z,3.90
2023-02-18T04:29:03.012Z,3.97
2023-02-18T04:31:29.447Z,4.00
2023-02-18T04:33:55.765Z,5.10
2023-02-18T04:36:22.102Z,4.20
2023-02-18T04:38:48.472Z,3.80
2023-02-18T04:41:14.817Z,4.10
2023-02-18T04:43:41.218Z,4.00
2023-02-18T04:46:07.884Z,3.90
2023-02-18T04:48:33.947Z,4.03
2023-02-18T04:51:00.286Z,3.70
2023-02-18T04:53:26.667Z,4.00
2023-02-18T04:55:53.014Z,4.07
2023-02-18T04:58:19.397Z,3.93
2023-02-18T05:00:45.748Z,3.80
2023-02-18T05:03:12.138Z,4.00
2023-02-18T05:05:38.475Z,4.00
2023-02-18T05:08:04.864Z,3.87
2023-02-18T05:10:31.200Z,3.80
2023-02-18T05:12:57.592Z,3.83
2023-02-18T05:15:23.945Z,4.00
2023-02-18T05:17:50.327Z,4.10
2023-02-18T05:20:16.668Z,4.07
2023-02-18T05:22:43.062Z,4.10
2023-02-18T05:25:09.395Z,4.00
2023-02-18T05:27:35.791Z,3.70
2023-02-18T05:30:02.175Z,3.90
2023-02-18T05:32:28.509Z,3.80
2023-02-18T05:34:54.852Z,3.80
2023-02-18T05:37:21.237Z,4.40
2023-02-18T05:39:47.589Z,3.80
2023-02-18T05:42:14.050Z,4.03
2023-02-18T05:44:40.386Z,3.83
2023-02-18T05:47:06.771Z,3.90
2023-02-18T05:49:33.111Z,3.80
2023-02-18T05:51:59.511Z,3.70
2023-02-18T05:54:25.851Z,3.80
2023-02-18T05:56:52.284Z,3.87
2023-02-18T05:59:18.660Z,3.60
2023-02-18T06:01:45.041Z,4.37
2023-02-18T06:04:11.396Z,3.83
2023-02-18T06:06:37.775Z,4.00
2023-02-18T06:09:04.123Z,3.90
2023-02-18T06:11:30.517Z,4.00
2023-02-18T06:13:56.949Z,3.93
2023-02-18T06:16:23.355Z,4.27
2023-02-18T06:18:49.641Z,4.40
2023-02-18T06:21:16.013Z,4.57
2023-02-18T06:23:42.420Z,3.97
2023-02-18T06:26:09.239Z,5.20
2023-02-18T06:28:35.130Z,4.73
2023-02-18T06:31:01.654Z,4.37
2023-02-18T06:33:27.873Z,4.10
2023-02-18T06:35:54.195Z,4.30
2023-02-18T06:38:20.599Z,5.70
2023-02-18T06:40:46.912Z,5.07
2023-02-18T06:43:13.293Z,5.30
2023-02-18T06:45:39.659Z,4.93
2023-02-18T06:48:06.038Z,5.20
2023-02-18T06:50:32.379Z,4.90
2023-02-18T06:52:58.764Z,4.60
2023-02-18T06:55:25.100Z,4.83
2023-02-18T06:57:51.498Z,4.93
2023-02-18T07:00:17.826Z,5.00
2023-02-18T07:02:44.206Z,5.10
2023-02-18T07:05:10.553Z,5.37
2023-02-18T07:07:36.939Z,5.30
2023-02-18T07:10:03.329Z,5.00
2023-02-18T07:12:29.712Z,5.03
2023-02-18T07:14:56.053Z,5.20
2023-02-18T07:17:22.426Z,5.50
2023-02-18T07:19:48.785Z,5.00
2023-02-18T07:22:15.168Z,5.10
2023-02-18T07:24:41.513Z,5.27
2023-02-18T07:27:07.907Z,5.70
2023-02-18T07:29:34.241Z,5.10
2023-02-18T07:32:00.638Z,5.17
2023-02-18T07:34:26.969Z,5.40
2023-02-18T07:36:53.346Z,5.77
2023-02-18T07:39:19.691Z,5.60
2023-02-18T07:41:46.068Z,6.00
2023-02-18T07:44:12.408Z,5.43
2023-02-18T07:46:38.795Z,5.20
2023-02-18T07:49:05.136Z,5.37
2023-02-18T07:51:31.514Z,5.43
2023-02-18T07:53:57.852Z,5.03
2023-02-18T07:56:24.237Z,6.03
2023-02-18T07:58:50.591Z,4.90
2023-02-18T08:01:16.973Z,5.33
2023-02-18T08:03:43.346Z,5.30
2023-02-18T08:06:10.251Z,6.23
2023-02-18T08:08:37.302Z,5.03
2023-02-18T08:11:10.018Z,5.40
2023-02-18T08:13:28.803Z,6.00
2023-02-18T08:15:55.186Z,5.23
2023-02-18T08:18:21.562Z,5.80
2023-02-18T08:20:47.933Z,6.63
2023-02-18T08:23:14.266Z,5.27
2023-02-18T08:25:40.658Z,5.50
2023-02-18T08:28:06.995Z,5.40
2023-02-18T08:30:33.518Z,5.20
2023-02-18T08:32:59.725Z,5.90
2023-02-18T08:35:26.120Z,5.10
2023-02-18T08:37:54.546Z,5.43
2023-02-18T08:40:21.299Z,5.13
2023-02-18T08:42:45.185Z,5.10
2023-02-18T08:45:11.563Z,5.10
2023-02-18T08:48:16.151Z,5.00
2023-02-18T08:50:04.286Z,4.80
2023-02-18T08:52:30.627Z,4.90
2023-02-18T08:54:57.015Z,5.13
2023-02-18T08:57:23.352Z,5.33
2023-02-18T08:59:49.758Z,5.83
2023-02-18T09:02:16.095Z,5.10
2023-02-18T09:04:42.470Z,5.30
2023-02-18T09:07:08.796Z,5.27
2023-02-18T09:09:35.187Z,5.17
2023-02-18T09:12:01.529Z,5.20
2023-02-18T09:14:27.901Z,5.00
2023-02-18T09:16:54.244Z,4.97
2023-02-18T09:19:20.668Z,5.80
2023-02-18T09:21:46.973Z,5.77
2023-02-18T09:24:14.802Z,4.70
2023-02-18T09:26:39.708Z,5.13
2023-02-18T09:29:06.101Z,5.17
2023-02-18T09:31:33.867Z,5.10
2023-02-18T09:33:58.859Z,5.07
2023-02-18T09:36:25.191Z,5.03
2023-02-18T09:38:51.606Z,5.67
2023-02-18T09:41:18.158Z,5.60
2023-02-18T09:43:44.573Z,6.17
2023-02-18T09:46:10.987Z,4.77
2023-02-18T09:48:37.287Z,4.50
2023-02-18T09:51:03.634Z,5.03
2023-02-18T09:53:30.020Z,5.67
2023-02-18T09:55:56.351Z,4.97
2023-02-18T09:58:22.749Z,5.57
2023-02-18T10:00:49.076Z,5.17
2023-02-18T10:03:15.472Z,5.27
2023-02-18T10:05:41.816Z,5.10
2023-02-18T10:08:08.211Z,5.63
2023-02-18T10:10:34.550Z,5.13
2023-02-18T10:13:00.930Z,5.20
2023-02-18T10:15:27.265Z,5.03
2023-02-18T10:17:54.876Z,5.40
2023-02-18T10:20:20.036Z,4.93
2023-02-18T10:22:46.383Z,5.20
2023-02-18T10:25:12.753Z,5.70
2023-02-18T10:27:39.135Z,4.87
2023-02-18T10:30:05.500Z,4.87
2023-02-18T10:32:31.859Z,4.80
2023-02-18T10:35:00.260Z,6.23
2023-02-18T10:37:24.584Z,4.80
2023-02-18T10:39:50.931Z,4.90
2023-02-18T10:42:17.315Z,5.13
2023-02-18T10:44:43.651Z,4.70
2023-02-18T10:47:10.057Z,5.00
2023-02-18T10:49:36.399Z,4.67
2023-02-18T10:52:02.843Z,5.07
2023-02-18T10:54:29.183Z,5.60
2023-02-18T10:56:55.574Z,5.07
2023-02-18T10:59:21.942Z,5.17
2023-02-18T11:01:48.362Z,4.80
2023-02-18T11:04:14.710Z,5.13
2023-02-18T11:06:41.075Z,4.87
2023-02-18T11:09:07.488Z,5.17
2023-02-18T11:11:33.900Z,5.13
2023-02-18T11:14:00.233Z,5.20
2023-02-18T11:16:26.699Z,5.23
2023-02-18T11:18:52.980Z,4.70
2023-02-18T11:21:21.394Z,4.93
2023-02-18T11:23:45.702Z,5.00
2023-02-18T11:26:12.106Z,5.40
2023-02-18T11:28:38.419Z,5.20
2023-02-18T11:31:06.640Z,5.20
2023-02-18T11:33:31.171Z,5.03
2023-02-18T11:35:57.542Z,4.60
2023-02-18T11:38:23.888Z,4.90
2023-02-18T11:40:50.266Z,4.63
2023-02-18T11:43:16.622Z,4.90
2023-02-18T11:45:43.003Z,4.60
2023-02-18T11:48:09.354Z,4.50
2023-02-18T11:50:35.731Z,4.90
2023-02-18T11:53:02.076Z,4.70
2023-02-18T11:55:28.489Z,4.80
2023-02-18T11:57:54.834Z,5.03
2023-02-18T12:00:21.208Z,4.63
2023-02-18T12:02:47.576Z,4.40
2023-02-18T12:05:14.006Z,4.60
2023-02-18T12:07:40.325Z,4.80
2023-02-18T12:10:06.707Z,4.90
2023-02-18T12:12:33.085Z,4.70
2023-02-18T12:14:59.521Z,4.30
2023-02-18T12:17:25.848Z,4.70
2023-02-18T12:19:52.232Z,4.57
2023-02-18T12:22:18.580Z,4.60
2023-02-18T12:24:44.985Z,4.93
2023-02-18T12:27:11.337Z,4.57
2023-02-18T12:29:37.711Z,4.60
2023-02-18T12:32:03.877Z,4.90
2023-02-18T12:34:30.248Z,4.60
2023-02-18T12:36:56.589Z,4.33
2023-02-18T12:39:22.976Z,4.67
2023-02-18T12:41:49.320Z,4.23
2023-02-18T12:44:15.704Z,4.83
2023-02-18T12:46:42.042Z,4.70
2023-02-18T12:49:08.481Z,4.60
2023-02-18T12:51:34.802Z,4.70
2023-02-18T12:54:01.190Z,4.80
2023-02-18T12:56:27.576Z,4.50
2023-02-18T12:58:53.960Z,4.97
2023-02-18T13:01:20.466Z,4.37
2023-02-18T13:03:47.185Z,4.37
2023-02-18T13:06:13.133Z,4.40
2023-02-18T13:08:39.545Z,4.10
2023-02-18T13:11:05.879Z,4.53
2023-02-18T13:13:32.257Z,4.37
2023-02-18T13:15:58.597Z,4.20
2023-02-18T13:18:24.991Z,4.13
2023-02-18T13:20:51.335Z,4.47
2023-02-18T13:23:17.721Z,4.13
2023-02-18T13:25:44.105Z,4.23
2023-02-18T13:28:10.452Z,4.10
2023-02-18T13:30:36.974Z,4.50
2023-02-18T13:33:03.196Z,4.20
2023-02-18T13:35:29.551Z,4.07
2023-02-18T13:37:55.949Z,4.40
2023-02-18T13:40:22.312Z,4.00
2023-02-18T13:42:48.697Z,3.93
2023-02-18T13:45:15.081Z,4.00
2023-02-18T13:47:41.486Z,4.20
2023-02-18T13:50:07.845Z,4.20
2023-02-18T13:52:34.211Z,4.13
2023-02-18T13:55:00.731Z,4.07
2023-02-18T13:57:27.101Z,3.80
2023-02-18T13:59:53.444Z,4.10
2023-02-18T14:02:19.928Z,4.00
2023-02-18T14:04:46.203Z,4.20
2023-02-18T14:07:12.584Z,4.60
2023-02-18T14:09:38.921Z,3.90
2023-02-18T14:12:05.298Z,4.20
2023-02-18T14:14:31.639Z,4.20
2023-02-18T14:16:58.034Z,3.90
2023-02-18T14:19:24.410Z,4.07
2023-02-18T14:21:50.796Z,4.40
2023-02-18T14:24:17.142Z,4.13
2023-02-18T14:26:43.565Z,4.03
2023-02-18T14:29:09.901Z,4.23
2023-02-18T14:31:36.365Z,4.10
2023-02-18T14:34:02.661Z,4.10
2023-02-18T14:36:29.128Z,3.90
2023-02-18T14:38:55.423Z,4.10
2023-02-18T14:41:21.804Z,4.10
2023-02-18T14:43:48.158Z,4.20
2023-02-18T14:46:14.542Z,4.03
2023-02-18T14:48:40.876Z,3.83
2023-02-18T14:51:07.685Z,4.13
2023-02-18T14:53:33.597Z,4.27
2023-02-18T14:56:01.235Z,4.17
2023-02-18T14:58:26.342Z,4.10
2023-02-18T15:00:52.766Z,4.10
2023-02-18T15:03:19.110Z,4.00
2023-02-18T15:05:45.491Z,4.03
2023-02-18T15:08:11.835Z,4.03
2023-02-18T15:10:38.241Z,3.80
2023-02-18T15:13:04.577Z,4.03
2023-02-18T15:15:30.956Z,3.93
2023-02-18T15:17:57.303Z,3.90
2023-02-18T15:20:23.682Z,4.00
2023-02-18T15:22:50.021Z,3.97
2023-02-18T15:25:16.412Z,3.83
2023-02-18T15:27:42.754Z,4.00
2023-02-18T15:30:09.167Z,4.00
2023-02-18T15:32:35.492Z,4.50
2023-02-18T15:35:01.936Z,4.00
2023-02-18T15:37:28.245Z,3.90
2023-02-18T15:39:54.611Z,4.13
2023-02-18T15:42:20.980Z,3.90
2023-02-18T15:44:47.395Z,4.40
2023-02-18T15:47:13.728Z,3.80
2023-02-18T15:49:40.106Z,3.90
2023-02-18T15:52:06.448Z,3.83
2023-02-18T15:54:32.860Z,4.07
2023-02-18T15:56:59.203Z,4.20
2023-02-18T15:59:25.603Z,3.80
2023-02-18T16:01:51.959Z,3.90
2023-02-18T16:04:18.332Z,4.33
2023-02-18T16:06:44.671Z,3.90
2023-02-18T16:09:11.050Z,3.80
2023-02-18T16:11:37.397Z,4.03
2023-02-18T16:14:03.781Z,3.90
2023-02-18T16:16:31.147Z,4.40
2023-02-18T16:18:56.506Z,4.10
2023-02-18T16:21:22.932Z,4.57
2023-02-18T16:23:49.361Z,4.00
2023-02-18T16:26:15.701Z,4.37
2023-02-18T16:28:42.099Z,3.80
2023-02-18T16:31:08.460Z,3.80
2023-02-18T16:33:34.870Z,3.73
2023-02-18T16:36:01.234Z,3.80
2023-02-18T16:38:27.608Z,3.93
2023-02-18T16:40:53.954Z,3.60
2023-02-18T16:43:20.346Z,4.00
2023-02-18T16:45:49.265Z,4.00
2023-02-18T16:48:13.109Z,4.73
2023-02-18T16:50:39.454Z,3.87
2023-02-18T16:53:05.848Z,3.90
2023-02-18T16:55:32.233Z,4.00
2023-02-18T16:57:58.579Z,3.93
2023-02-18T17:00:24.971Z,3.80
2023-02-18T17:02:51.320Z,3.80
2023-02-18T17:05:26.428Z,3.77
2023-02-18T17:07:44.033Z,4.20
2023-02-18T17:10:10.418Z,4.20
2023-02-18T17:12:36.764Z,4.00
2023-02-18T17:15:03.153Z,3.80
2023-02-18T17:17:29.493Z,3.80
2023-02-18T17:19:55.880Z,3.97
2023-02-18T17:22:22.247Z,3.90
2023-02-18T17:24:48.640Z,4.03
2023-02-18T17:27:14.986Z,3.90
2023-02-18T17:29:41.369Z,4.07
2023-02-18T17:32:07.744Z,3.83
2023-02-18T17:34:34.116Z,3.80
2023-02-18T17:37:00.460Z,3.90
2023-02-18T17:39:26.850Z,4.00
2023-02-18T17:41:53.200Z,4.20
2023-02-18T17:44:19.596Z,3.73
2023-02-18T17:46:45.944Z,3.93
2023-02-18T17:49:12.364Z,4.60
2023-02-18T17:51:38.696Z,3.80
2023-02-18T17:54:05.095Z,3.80
2023-02-18T17:56:31.474Z,3.93
2023-02-18T17:58:59.253Z,4.10
2023-02-18T18:01:24.210Z,3.90
2023-02-18T18:06:25.875Z,3.80
2023-02-18T18:08:52.273Z,3.77
2023-02-18T18:11:18.667Z,4.00
2023-02-18T18:13:45.015Z,4.00
2023-02-18T18:16:11.406Z,3.80
2023-02-18T18:18:37.768Z,3.70
2023-02-18T18:21:04.148Z,4.20
2023-02-18T18:23:30.509Z,3.77
2023-02-18T18:25:56.890Z,3.90
2023-02-18T18:28:23.279Z,4.00
2023-02-18T18:30:49.695Z,3.80
2023-02-18T18:33:16.069Z,3.80
2023-02-18T18:35:42.453Z,4.00
2023-02-18T18:38:08.829Z,3.87
2023-02-18T18:40:35.218Z,4.27
2023-02-18T18:43:01.623Z,3.80
2023-02-18T18:45:28.026Z,3.93
2023-02-18T18:47:54.347Z,3.90
2023-02-18T18:50:20.793Z,4.03
2023-02-18T18:52:47.149Z,3.90
2023-02-18T18:55:13.529Z,4.00
2023-02-18T18:57:39.874Z,3.77
2023-02-18T19:00:06.259Z,4.10
2023-02-18T19:02:32.833Z,4.03
2023-02-18T19:04:59.224Z,3.73
2023-02-18T19:07:25.583Z,3.90
2023-02-18T19:09:52.006Z,3.90
2023-02-18T19:12:18.350Z,3.80
2023-02-18T19:14:44.754Z,3.80
2023-02-18T19:17:11.079Z,4.33
2023-02-18T19:19:37.477Z,4.67
2023-02-18T19:22:03.810Z,4.23
2023-02-18T19:24:30.208Z,4.10
2023-02-18T19:26:56.568Z,3.67
2023-02-18T19:29:22.954Z,3.90
2023-02-18T19:31:49.364Z,3.73
2023-02-18T19:34:15.710Z,4.20
2023-02-18T19:36:42.119Z,3.80
2023-02-18T19:39:08.516Z,4.00
2023-02-18T19:41:34.894Z,3.80
2023-02-18T19:44:01.256Z,4.00
2023-02-18T19:46:27.666Z,4.00
2023-02-18T19:48:54.041Z,4.00
2023-02-18T19:51:20.437Z,4.10
2023-02-18T19:53:46.782Z,4.37
2023-02-18T19:56:13.135Z,4.50
2023-02-18T19:58:39.522Z,3.90
2023-02-18T20:01:05.942Z,4.20
2023-02-18T20:03:32.351Z,3.90
2023-02-18T20:05:58.676Z,3.70
2023-02-18T20:08:25.074Z,4.10
2023-02-18T20:10:51.408Z,3.77
2023-02-18T20:13:17.811Z,3.97
2023-02-18T20:15:44.202Z,3.80
2023-02-18T20:18:10.567Z,3.67
2023-02-18T20:20:36.954Z,4.00
2023-02-18T20:23:03.368Z,4.00
2023-02-18T20:25:29.713Z,4.00
2023-02-18T20:28:01.127Z,3.93
2023-02-18T20:30:22.489Z,4.17
2023-02-18T20:32:48.837Z,4.20
2023-02-18T20:35:15.202Z,4.00
2023-02-18T20:37:41.611Z,4.50
2023-02-18T20:40:07.966Z,4.87
2023-02-18T20:42:34.353Z,3.97
2023-02-18T20:45:00.715Z,4.47
2023-02-18T20:47:29.058Z,4.10
2023-02-18T20:49:53.476Z,3.90
2023-02-18T20:52:19.866Z,4.40
2023-02-18T20:54:46.212Z,4.20
2023-02-18T20:57:12.622Z,4.03
2023-02-18T20:59:38.952Z,3.80
2023-02-18T21:02:05.399Z,4.07
2023-02-18T21:04:31.703Z,4.00
2023-02-18T21:06:58.083Z,3.90
2023-02-18T21:09:24.455Z,3.90
2023-02-18T21:11:50.846Z,4.00
2023-02-18T21:14:17.204Z,4.27
2023-02-18T21:16:43.635Z,3.80
2023-02-18T21:19:09.971Z,4.00
2023-02-18T21:21:36.371Z,3.90
2023-02-18T21:24:02.728Z,3.77
2023-02-18T21:26:29.151Z,3.67
2023-02-18T21:28:55.504Z,4.00
2023-02-18T21:31:21.994Z,4.03
2023-02-18T21:33:48.229Z,3.83
2023-02-18T21:36:14.627Z,4.00
2023-02-18T21:38:40.954Z,3.93
2023-02-18T21:41:07.472Z,3.83
2023-02-18T21:43:33.689Z,3.77
2023-02-18T21:46:00.092Z,4.13
2023-02-18T21:48:26.503Z,3.80
2023-02-18T21:50:52.876Z,3.80
2023-02-18T21:53:19.227Z,3.70
2023-02-18T21:55:55.248Z,3.90
2023-02-18T21:58:11.970Z,3.87
2023-02-18T22:00:38.402Z,4.00
2023-02-18T22:03:04.778Z,3.63
2023-02-18T22:05:31.187Z,3.80
2023-02-18T22:07:57.544Z,4.13
2023-02-18T22:10:23.929Z,4.20
2023-02-18T22:12:50.278Z,3.80
2023-02-18T22:15:16.696Z,3.67
2023-02-18T22:17:43.040Z,3.90
2023-02-18T22:20:09.427Z,3.80
2023-02-18T22:22:35.779Z,4.00
2023-02-18T22:25:02.166Z,4.20
2023-02-18T22:27:28.499Z,3.80
2023-02-18T22:29:54.897Z,4.00
2023-02-18T22:32:21.364Z,4.10
2023-02-18T22:34:47.655Z,3.97
2023-02-18T22:37:13.990Z,4.17
2023-02-18T22:39:40.385Z,4.10
2023-02-18T22:42:06.738Z,3.60
2023-02-18T22:44:33.160Z,4.23
2023-02-18T22:46:59.492Z,4.00
2023-02-18T22:49:25.893Z,4.10
2023-02-18T22:51:52.252Z,3.70
2023-02-18T22:54:18.738Z,3.70
2023-02-18T22:56:45.102Z,3.70
2023-02-18T22:59:11.499Z,4.27
2023-02-18T23:01:37.820Z,4.10
2023-02-18T23:04:04.235Z,4.50
2023-02-18T23:06:30.599Z,4.00
2023-02-18T23:08:56.944Z,3.83
2023-02-18T23:11:23.285Z,4.20
2023-02-18T23:13:49.681Z,3.90
2023-02-18T23:16:16.091Z,4.30
2023-02-18T23:18:42.410Z,4.20
2023-02-18T23:21:11.074Z,4.00
2023-02-18T23:23:35.150Z,4.00
2023-02-18T23:26:01.493Z,4.20
2023-02-18T23:28:27.882Z,3.80
2023-02-18T23:30:54.260Z,3.97
2023-02-18T23:33:22.630Z,4.07
2023-02-18T23:35:46.989Z,4.03
2023-02-18T23:38:13.390Z,3.97
2023-02-18T23:40:39.742Z,4.03
2023-02-18T23:43:06.147Z,4.00
2023-02-18T23:45:32.493Z,3.80
2023-02-18T23:47:58.893Z,4.00
2023-02-18T23:50:25.262Z,4.10
2023-02-18T23:52:51.622Z,3.93
2023-02-18T23:55:17.971Z,4.03
2023-02-18T23:57:44.365Z,4.40
